createdAt,value
2023-04-19T00:00:22.362Z,1.20
2023-04-19T00:01:25.549Z,1.15
2023-04-19T00:02:29.395Z,0.82
2023-04-19T00:03:32.792Z,1.10
2023-04-19T00:04:38.472Z,1.15
2023-04-19T00:05:41.938Z,0.90
2023-04-19T00:06:44.858Z,1.08
2023-04-19T00:07:47.994Z,0.90
2023-04-19T00:08:50.863Z,1.08
2023-04-19T00:09:54.024Z,1.02
2023-04-19T00:10:56.873Z,1.23
2023-04-19T00:12:04.713Z,1.23
2023-04-19T00:13:07.619Z,1.60
2023-04-19T00:14:10.768Z,1.00
2023-04-19T00:15:13.697Z,1.00
2023-04-19T00:16:17.510Z,1.05
2023-04-19T00:17:21.498Z,1.30
2023-04-19T00:18:24.885Z,1.00
2023-04-19T00:19:27.841Z,1.37
2023-04-19T00:20:30.699Z,0.80
2023-04-19T00:21:33.907Z,1.02
2023-04-19T00:22:36.957Z,1.00
2023-04-19T00:23:39.808Z,0.90
2023-04-19T00:24:42.735Z,0.88
2023-04-19T00:25:49.679Z,0.88
2023-04-19T00:26:52.765Z,1.55
2023-04-19T00:27:55.965Z,1.00
2023-04-19T00:28:59.101Z,1.10
2023-04-19T00:30:02.446Z,0.57
2023-04-19T00:31:05.810Z,1.20
2023-04-19T00:32:09.049Z,1.10
2023-04-19T00:33:13.362Z,0.90
2023-04-19T00:34:16.679Z,0.88
2023-04-19T00:35:20.064Z,1.12
2023-04-19T00:36:23.121Z,1.45
2023-04-19T00:37:26.019Z,0.90
2023-04-19T00:38:28.906Z,1.40
2023-04-19T00:39:31.970Z,0.90
2023-04-19T00:40:35.101Z,1.10
2023-04-19T00:41:37.823Z,1.55
2023-04-19T00:42:40.919Z,1.60
2023-04-19T00:43:43.858Z,0.80
2023-04-19T00:44:46.639Z,1.10
2023-04-19T00:45:50.119Z,1.02
2023-04-19T00:46:54.179Z,0.90
2023-04-19T00:47:57.071Z,0.60
2023-04-19T00:49:00.386Z,1.00
2023-04-19T00:50:07.302Z,1.12
2023-04-19T00:51:10.949Z,1.48
2023-04-19T00:52:14.369Z,1.00
2023-04-19T00:53:17.249Z,0.93
2023-04-19T00:54:20.682Z,1.42
2023-04-19T00:55:24.777Z,1.05
2023-04-19T00:56:27.890Z,1.00
2023-04-19T00:57:31.162Z,0.85
2023-04-19T00:58:34.189Z,1.00
2023-04-19T00:59:38.016Z,1.08
2023-04-19T01:00:41.120Z,1.00
2023-04-19T01:01:44.218Z,0.80
2023-04-19T01:02:48.263Z,1.35
2023-04-19T01:03:51.516Z,1.23
2023-04-19T01:04:54.633Z,1.08
2023-04-19T01:05:57.695Z,0.90
2023-04-19T01:07:01.756Z,0.80
2023-04-19T01:08:04.959Z,0.90
2023-04-19T01:09:07.830Z,1.10
2023-04-19T01:10:10.978Z,1.40
2023-04-19T01:11:13.948Z,0.82
2023-04-19T01:12:16.933Z,0.90
2023-04-19T01:13:19.974Z,0.93
2023-04-19T01:14:22.912Z,1.10
2023-04-19T01:15:26.447Z,1.17
2023-04-19T01:16:30.055Z,1.70
2023-04-19T01:17:33.504Z,1.00
2023-04-19T01:18:38.219Z,1.10
2023-04-19T01:19:41.370Z,0.73
2023-04-19T01:20:44.511Z,1.00
2023-04-19T01:21:47.389Z,0.90
2023-04-19T01:22:50.572Z,0.75
2023-04-19T01:23:53.568Z,1.20
2023-04-19T01:24:57.482Z,0.73
2023-04-19T01:26:02.068Z,0.88
2023-04-19T01:27:04.937Z,1.00
2023-04-19T01:28:07.779Z,1.70
2023-04-19T01:29:10.562Z,1.00
2023-04-19T01:30:13.812Z,1.23
2023-04-19T01:31:16.802Z,0.98
2023-04-19T01:32:19.723Z,0.80
2023-04-19T01:33:22.702Z,0.80
2023-04-19T01:34:25.500Z,0.90
2023-04-19T01:35:28.325Z,1.23
2023-04-19T01:36:31.324Z,1.23
2023-04-19T01:37:37.697Z,1.42
2023-04-19T01:38:40.819Z,1.12
2023-04-19T01:39:44.233Z,1.20
2023-04-19T01:40:47.299Z,0.90
2023-04-19T01:41:50.144Z,1.12
2023-04-19T01:42:53.834Z,0.70
2023-04-19T01:43:56.582Z,1.10
2023-04-19T01:44:59.618Z,0.73
2023-04-19T01:46:02.478Z,0.88
2023-04-19T01:47:06.109Z,1.27
2023-04-19T01:48:09.185Z,1.02
2023-04-19T01:49:12.092Z,1.17
2023-04-19T01:50:15.085Z,1.12
2023-04-19T01:51:18.420Z,0.80
2023-04-19T01:52:21.384Z,1.17
2023-04-19T01:53:24.339Z,1.00
2023-04-19T01:54:27.290Z,1.30
2023-04-19T01:55:30.429Z,1.15
2023-04-19T01:56:33.434Z,0.90
2023-04-19T01:57:36.259Z,1.30
2023-04-19T01:58:39.126Z,0.85
2023-04-19T01:59:42.018Z,0.93
2023-04-19T02:00:44.912Z,1.23
2023-04-19T02:01:48.298Z,1.05
2023-04-19T02:02:51.460Z,1.05
2023-04-19T02:03:54.645Z,0.80
2023-04-19T02:04:58.115Z,0.85
2023-04-19T02:06:01.046Z,0.88
2023-04-19T02:07:04.107Z,0.80
2023-04-19T02:08:06.999Z,1.10
2023-04-19T02:09:10.199Z,1.10
2023-04-19T02:10:13.376Z,0.90
2023-04-19T02:11:16.259Z,1.20
2023-04-19T02:12:19.619Z,0.70
2023-04-19T02:13:22.696Z,0.90
2023-04-19T02:14:25.720Z,1.37
2023-04-19T02:15:28.626Z,1.02
2023-04-19T02:16:33.815Z,0.90
2023-04-19T02:17:39.186Z,0.90
2023-04-19T02:18:42.228Z,1.17
2023-04-19T02:19:45.140Z,0.85
2023-04-19T02:20:48.459Z,1.00
2023-04-19T02:21:52.078Z,0.82
2023-04-19T02:22:54.950Z,1.33
2023-04-19T02:23:58.368Z,1.40
2023-04-19T02:25:01.347Z,1.20
2023-04-19T02:26:04.622Z,1.60
2023-04-19T02:27:07.444Z,1.08
2023-04-19T02:28:10.903Z,1.33
2023-04-19T02:29:14.107Z,1.40
2023-04-19T02:30:16.971Z,0.93
2023-04-19T02:31:19.831Z,1.37
2023-04-19T02:32:22.851Z,1.35
2023-04-19T02:33:29.852Z,0.90
2023-04-19T02:34:36.210Z,0.93
2023-04-19T02:35:39.214Z,1.30
2023-04-19T02:36:42.086Z,1.00
2023-04-19T02:37:45.729Z,1.20
2023-04-19T02:38:49.029Z,1.55
2023-04-19T02:39:51.877Z,1.30
2023-04-19T02:40:55.191Z,0.90
2023-04-19T02:41:58.239Z,1.87
2023-04-19T02:43:01.137Z,1.10
2023-04-19T02:44:04.277Z,0.95
2023-04-19T02:45:07.920Z,0.98
2023-04-19T02:46:10.883Z,1.00
2023-04-19T02:47:14.020Z,1.17
2023-04-19T02:48:17.218Z,1.23
2023-04-19T02:49:21.359Z,1.00
2023-04-19T02:50:24.440Z,1.10
2023-04-19T02:51:27.387Z,1.45
2023-04-19T02:52:30.429Z,1.60
2023-04-19T02:53:33.862Z,1.05
2023-04-19T02:54:36.859Z,0.73
2023-04-19T02:55:39.581Z,1.00
2023-04-19T02:56:42.430Z,0.90
2023-04-19T02:57:45.490Z,1.10
2023-04-19T02:58:48.709Z,1.05
2023-04-19T02:59:51.601Z,0.75
2023-04-19T03:00:54.575Z,1.08
2023-04-19T03:01:57.545Z,1.05
2023-04-19T03:03:01.142Z,1.08
2023-04-19T03:04:04.428Z,0.90
2023-04-19T03:05:07.569Z,0.88
2023-04-19T03:06:10.871Z,1.25
2023-04-19T03:07:14.019Z,1.50
2023-04-19T03:08:17.235Z,0.82
2023-04-19T03:09:20.147Z,0.88
2023-04-19T03:10:23.897Z,1.02
2023-04-19T03:11:26.740Z,1.37
2023-04-19T03:12:29.609Z,1.08
2023-04-19T03:13:32.383Z,0.98
2023-04-19T03:14:35.568Z,1.20
2023-04-19T03:15:38.419Z,0.80
2023-04-19T03:16:41.925Z,1.30
2023-04-19T03:17:45.078Z,1.73
2023-04-19T03:18:49.457Z,1.40
2023-04-19T03:19:53.094Z,0.93
2023-04-19T03:20:56.078Z,1.08
2023-04-19T03:21:59.437Z,1.02
2023-04-19T03:23:02.656Z,0.95
2023-04-19T03:24:05.677Z,0.95
2023-04-19T03:25:09.189Z,1.10
2023-04-19T03:26:12.218Z,0.80
2023-04-19T03:27:15.226Z,0.80
2023-04-19T03:28:18.245Z,1.02
2023-04-19T03:29:21.190Z,1.40
2023-04-19T03:30:24.161Z,1.33
2023-04-19T03:31:27.206Z,1.08
2023-04-19T03:32:32.280Z,1.20
2023-04-19T03:33:35.157Z,1.15
2023-04-19T03:34:38.029Z,1.58
2023-04-19T03:35:40.826Z,0.82
2023-04-19T03:36:43.854Z,1.48
2023-04-19T03:37:47.184Z,1.65
2023-04-19T03:38:50.162Z,1.00
2023-04-19T03:39:53.181Z,1.40
2023-04-19T03:40:57.516Z,1.10
2023-04-19T03:42:01.573Z,1.48
2023-04-19T03:43:05.005Z,1.17
2023-04-19T03:44:07.833Z,1.00
2023-04-19T03:45:11.096Z,0.80
2023-04-19T03:46:13.994Z,1.00
2023-04-19T03:47:16.880Z,0.82
2023-04-19T03:48:19.787Z,1.15
2023-04-19T03:49:22.671Z,0.88
2023-04-19T03:50:25.787Z,1.20
2023-04-19T03:51:29.253Z,1.20
2023-04-19T03:52:32.793Z,1.00
2023-04-19T03:53:36.725Z,1.30
2023-04-19T03:54:39.598Z,1.33
2023-04-19T03:55:42.401Z,0.70
2023-04-19T03:56:45.485Z,1.08
2023-04-19T03:57:48.959Z,0.90
2023-04-19T03:58:52.300Z,1.20
2023-04-19T03:59:55.184Z,1.10
2023-04-19T04:00:59.897Z,1.17
2023-04-19T04:02:03.028Z,1.27
2023-04-19T04:03:06.185Z,1.00
2023-04-19T04:04:09.492Z,0.90
2023-04-19T04:05:12.669Z,0.80
2023-04-19T04:06:16.189Z,0.93
2023-04-19T04:07:19.015Z,1.00
2023-04-19T04:08:21.896Z,1.00
2023-04-19T04:09:25.253Z,1.10
2023-04-19T04:10:28.416Z,0.90
2023-04-19T04:11:31.434Z,1.20
2023-04-19T04:12:34.751Z,0.80
2023-04-19T04:13:37.779Z,0.88
2023-04-19T04:14:40.736Z,1.12
2023-04-19T04:15:43.560Z,1.58
2023-04-19T04:16:46.649Z,1.10
2023-04-19T04:17:50.780Z,0.90
2023-04-19T04:18:53.748Z,0.90
2023-04-19T04:19:56.524Z,0.90
2023-04-19T04:20:59.421Z,1.00
2023-04-19T04:22:02.589Z,1.17
2023-04-19T04:23:05.593Z,1.05
2023-04-19T04:24:08.440Z,1.42
2023-04-19T04:25:11.372Z,1.10
2023-04-19T04:26:14.198Z,1.00
2023-04-19T04:27:21.163Z,1.17
2023-04-19T04:28:24.177Z,1.20
2023-04-19T04:29:27.433Z,0.95
2023-04-19T04:30:30.795Z,1.12
2023-04-19T04:31:36.206Z,1.20
2023-04-19T04:32:41.388Z,1.40
2023-04-19T04:33:46.095Z,1.27
2023-04-19T04:34:49.200Z,1.10
2023-04-19T04:35:52.323Z,1.25
2023-04-19T04:36:55.250Z,1.23
2023-04-19T04:37:59.814Z,0.98
2023-04-19T04:39:03.079Z,1.10
2023-04-19T04:40:08.070Z,1.35
2023-04-19T04:41:12.288Z,1.10
2023-04-19T04:42:15.682Z,1.23
2023-04-19T04:43:18.434Z,1.20
2023-04-19T04:44:22.981Z,0.95
2023-04-19T04:45:25.978Z,1.45
2023-04-19T04:46:28.904Z,1.17
2023-04-19T04:47:33.022Z,1.00
2023-04-19T04:48:35.965Z,1.15
2023-04-19T04:49:38.852Z,0.98
2023-04-19T04:50:41.726Z,0.82
2023-04-19T04:51:44.591Z,1.65
2023-04-19T04:52:47.439Z,1.62
2023-04-19T04:53:50.242Z,1.40
2023-04-19T04:54:53.050Z,1.12
2023-04-19T04:55:55.914Z,0.93
2023-04-19T04:56:59.517Z,1.42
2023-04-19T04:58:02.655Z,1.12
2023-04-19T04:59:05.925Z,1.02
2023-04-19T05:00:10.118Z,1.12
2023-04-19T05:01:13.467Z,1.20
2023-04-19T05:02:17.207Z,1.15
2023-04-19T05:03:20.490Z,2.25
2023-04-19T05:04:23.449Z,0.90
2023-04-19T05:05:26.450Z,1.20
2023-04-19T05:06:29.369Z,1.12
2023-04-19T05:07:32.299Z,1.15
2023-04-19T05:08:35.058Z,1.00
2023-04-19T05:09:38.049Z,0.80
2023-04-19T05:10:40.920Z,0.90
2023-04-19T05:11:43.759Z,1.10
2023-04-19T05:12:46.616Z,1.20
2023-04-19T05:13:49.373Z,1.30
2023-04-19T05:14:52.279Z,1.33
2023-04-19T05:15:55.213Z,1.35
2023-04-19T05:16:58.046Z,0.95
2023-04-19T05:18:01.028Z,1.00
2023-04-19T05:19:03.976Z,1.33
2023-04-19T05:20:07.545Z,1.15
2023-04-19T05:21:10.771Z,1.40
2023-04-19T05:22:13.590Z,1.20
2023-04-19T05:23:17.146Z,1.52
2023-04-19T05:24:20.015Z,1.95
2023-04-19T05:25:22.982Z,0.80
2023-04-19T05:26:25.951Z,1.05
2023-04-19T05:27:28.852Z,1.58
2023-04-19T05:28:31.813Z,1.17
2023-04-19T05:29:34.595Z,1.33
2023-04-19T05:30:37.776Z,1.27
2023-04-19T05:31:40.683Z,1.10
2023-04-19T05:32:43.592Z,1.10
2023-04-19T05:33:46.719Z,1.12
2023-04-19T05:34:49.880Z,1.27
2023-04-19T05:35:52.760Z,1.15
2023-04-19T05:36:56.058Z,1.17
2023-04-19T05:37:59.020Z,1.05
2023-04-19T05:39:01.930Z,1.23
2023-04-19T05:40:06.121Z,1.30
2023-04-19T05:41:11.850Z,1.30
2023-04-19T05:42:14.814Z,1.20
2023-04-19T05:43:17.596Z,1.08
2023-04-19T05:44:20.737Z,0.90
2023-04-19T05:45:23.699Z,1.30
2023-04-19T05:46:27.404Z,1.02
2023-04-19T05:47:30.441Z,1.00
2023-04-19T05:48:33.569Z,1.55
2023-04-19T05:49:36.491Z,0.82
2023-04-19T05:50:39.815Z,1.30
2023-04-19T05:51:42.768Z,1.02
2023-04-19T05:52:45.852Z,0.95
2023-04-19T05:53:48.740Z,0.93
2023-04-19T05:54:51.793Z,1.20
2023-04-19T05:55:54.746Z,1.30
2023-04-19T05:56:58.041Z,0.95
2023-04-19T05:58:01.207Z,1.50
2023-04-19T05:59:04.266Z,1.08
2023-04-19T06:00:10.072Z,1.35
2023-04-19T06:01:12.972Z,1.33
2023-04-19T06:02:16.497Z,1.20
2023-04-19T06:03:20.197Z,1.50
2023-04-19T06:04:23.703Z,2.00
2023-04-19T06:05:27.366Z,1.27
2023-04-19T06:06:30.362Z,1.23
2023-04-19T06:07:35.901Z,1.50
2023-04-19T06:08:42.730Z,1.27
2023-04-19T06:09:45.552Z,1.27
2023-04-19T06:10:54.862Z,1.27
2023-04-19T06:12:02.225Z,1.10
2023-04-19T06:13:05.971Z,1.20
2023-04-19T06:14:08.948Z,1.08
2023-04-19T06:15:12.183Z,1.45
2023-04-19T06:16:15.125Z,1.25
2023-04-19T06:17:23.705Z,1.30
2023-04-19T06:18:26.884Z,0.82
2023-04-19T06:19:29.891Z,1.70
2023-04-19T06:20:32.818Z,1.75
2023-04-19T06:21:36.624Z,1.35
2023-04-19T06:22:46.294Z,1.62
2023-04-19T06:23:49.182Z,1.37
2023-04-19T06:24:52.021Z,1.20
2023-04-19T06:25:54.804Z,1.67
2023-04-19T06:26:58.132Z,1.40
2023-04-19T06:28:01.605Z,1.83
2023-04-19T06:29:04.518Z,1.45
2023-04-19T06:30:08.472Z,1.50
2023-04-19T06:31:12.486Z,1.52
2023-04-19T06:32:16.217Z,1.20
2023-04-19T06:33:19.128Z,1.27
2023-04-19T06:34:21.828Z,1.33
2023-04-19T06:35:25.677Z,1.25
2023-04-19T06:36:28.609Z,1.12
2023-04-19T06:37:34.184Z,1.20
2023-04-19T06:38:38.711Z,1.40
2023-04-19T06:39:41.562Z,1.25
2023-04-19T06:40:44.564Z,1.50
2023-04-19T06:41:47.840Z,1.65
2023-04-19T06:42:50.780Z,1.00
2023-04-19T06:43:53.748Z,1.30
2023-04-19T06:44:57.683Z,1.27
2023-04-19T06:46:01.361Z,1.37
2023-04-19T06:47:04.978Z,1.10
2023-04-19T06:48:07.880Z,1.10
2023-04-19T06:49:10.866Z,1.20
2023-04-19T06:50:13.900Z,1.20
2023-04-19T06:51:16.737Z,1.45
2023-04-19T06:52:19.842Z,1.27
2023-04-19T06:53:23.072Z,1.40
2023-04-19T06:54:25.866Z,0.98
2023-04-19T06:55:28.746Z,1.10
2023-04-19T06:56:47.683Z,1.40
2023-04-19T06:57:50.680Z,2.05
2023-04-19T06:58:53.517Z,1.40
2023-04-19T06:59:57.281Z,1.17
2023-04-19T07:01:01.653Z,1.00
2023-04-19T07:02:04.579Z,1.35
2023-04-19T07:03:07.492Z,1.12
2023-04-19T07:04:10.929Z,1.35
2023-04-19T07:05:13.938Z,1.33
2023-04-19T07:06:16.894Z,1.20
2023-04-19T07:07:19.729Z,1.20
2023-04-19T07:08:26.307Z,1.40
2023-04-19T07:09:32.875Z,1.27
2023-04-19T07:10:35.797Z,0.98
2023-04-19T07:11:38.640Z,1.20
2023-04-19T07:12:42.316Z,1.05
2023-04-19T07:13:45.483Z,1.10
2023-04-19T07:14:48.408Z,1.02
2023-04-19T07:15:51.213Z,1.30
2023-04-19T07:16:54.193Z,1.10
2023-04-19T07:17:57.122Z,1.12
2023-04-19T07:19:00.272Z,1.52
2023-04-19T07:20:05.321Z,0.90
2023-04-19T07:21:08.545Z,1.40
2023-04-19T07:22:13.657Z,0.95
2023-04-19T07:23:19.657Z,0.73
2023-04-19T07:24:22.784Z,1.12
2023-04-19T07:25:25.852Z,1.15
2023-04-19T07:26:28.686Z,1.10
2023-04-19T07:27:31.828Z,0.77
2023-04-19T07:28:34.712Z,1.02
2023-04-19T07:29:37.951Z,1.55
2023-04-19T07:30:41.379Z,1.20
2023-04-19T07:31:44.911Z,1.35
2023-04-19T07:32:48.412Z,2.05
2023-04-19T07:33:52.012Z,1.27
2023-04-19T07:34:54.767Z,1.48
2023-04-19T07:35:57.661Z,1.12
2023-04-19T07:37:00.673Z,0.95
2023-04-19T07:38:03.503Z,1.80
2023-04-19T07:39:06.379Z,1.50
2023-04-19T07:40:10.966Z,0.90
2023-04-19T07:41:13.944Z,1.00
2023-04-19T07:42:16.979Z,1.20
2023-04-19T07:43:20.146Z,1.52
2023-04-19T07:44:23.111Z,1.25
2023-04-19T07:45:26.126Z,1.20
2023-04-19T07:46:29.161Z,1.37
2023-04-19T07:47:32.366Z,1.42
2023-04-19T07:48:35.312Z,1.17
2023-04-19T07:49:38.657Z,0.98
2023-04-19T07:50:41.563Z,1.33
2023-04-19T07:51:44.497Z,1.10
2023-04-19T07:52:47.456Z,0.90
2023-04-19T07:53:50.812Z,1.17
2023-04-19T07:54:53.716Z,1.37
2023-04-19T07:55:56.536Z,1.00
2023-04-19T07:56:59.469Z,1.23
2023-04-19T07:58:02.639Z,1.73
2023-04-19T07:59:08.882Z,1.30
2023-04-19T08:00:13.329Z,1.40
2023-04-19T08:01:16.490Z,0.98
2023-04-19T08:02:19.625Z,1.25
2023-04-19T08:03:22.660Z,1.10
2023-04-19T08:04:25.914Z,1.15
2023-04-19T08:05:29.285Z,1.00
2023-04-19T08:06:32.717Z,1.08
2023-04-19T08:07:35.729Z,1.33
2023-04-19T08:08:38.957Z,1.00
2023-04-19T08:09:41.966Z,1.10
2023-04-19T08:10:44.973Z,1.40
2023-04-19T08:11:47.838Z,1.33
2023-04-19T08:14:09.366Z,1.10
2023-04-19T08:17:14.628Z,0.90
2023-04-19T08:17:54.793Z,1.10
2023-04-19T08:18:57.616Z,0.90
2023-04-19T08:20:00.564Z,1.00
2023-04-19T08:21:03.589Z,1.00
2023-04-19T08:22:06.287Z,1.12
2023-04-19T08:23:20.572Z,1.05
2023-04-19T08:24:25.378Z,1.67
2023-04-19T08:25:28.930Z,1.10
2023-04-19T08:26:31.797Z,1.45
2023-04-19T08:27:34.761Z,0.95
2023-04-19T08:28:37.774Z,1.08
2023-04-19T08:29:40.919Z,1.02
2023-04-19T08:30:43.900Z,1.20
2023-04-19T08:31:47.291Z,1.42
2023-04-19T08:32:51.249Z,1.27
2023-04-19T08:33:54.166Z,1.37
2023-04-19T08:34:57.617Z,1.75
2023-04-19T08:36:00.548Z,1.55
2023-04-19T08:37:05.055Z,1.77
2023-04-19T08:38:08.842Z,1.77
2023-04-19T08:39:28.917Z,1.70
2023-04-19T08:40:36.130Z,1.17
2023-04-19T08:41:40.331Z,1.30
2023-04-19T08:42:46.215Z,1.25
2023-04-19T08:43:52.184Z,1.40
2023-04-19T08:45:25.370Z,1.40
2023-04-19T08:46:23.743Z,1.35
2023-04-19T08:47:32.156Z,1.85
2023-04-19T08:48:37.349Z,2.40
2023-04-19T08:49:43.269Z,1.62
2023-04-19T08:51:03.392Z,1.60
2023-04-19T08:52:09.570Z,2.00
2023-04-19T08:54:20.126Z,1.52
2023-04-19T08:55:23.298Z,1.75
2023-04-19T08:56:35.286Z,2.10
2023-04-19T08:57:39.087Z,1.65
2023-04-19T08:58:57.971Z,1.92
2023-04-19T09:00:09.165Z,2.25
2023-04-19T09:01:22.603Z,1.73
2023-04-19T09:02:50.910Z,1.67
2023-04-19T09:04:02.631Z,1.67
2023-04-19T09:05:14.857Z,1.12
2023-04-19T09:06:18.222Z,1.60
2023-04-19T09:07:26.396Z,2.37
2023-04-19T09:08:31.376Z,1.62
2023-04-19T09:09:45.679Z,1.90
2023-04-19T09:10:56.798Z,1.23
2023-04-19T09:11:59.759Z,1.80
2023-04-19T09:13:06.005Z,1.40
2023-04-19T09:14:10.420Z,1.50
2023-04-19T09:15:13.535Z,2.10
2023-04-19T09:16:26.279Z,1.85
2023-04-19T09:17:30.187Z,1.73
2023-04-19T09:18:35.975Z,1.52
2023-04-19T09:19:48.164Z,1.90
2023-04-19T09:20:57.366Z,1.95
2023-04-19T09:22:13.046Z,1.62
2023-04-19T09:23:17.626Z,1.60
2023-04-19T09:24:20.580Z,1.75
2023-04-19T09:26:33.310Z,2.20
2023-04-19T09:27:37.329Z,2.60
2023-04-19T09:28:40.129Z,2.00
2023-04-19T09:29:53.408Z,1.98
2023-04-19T09:31:05.727Z,2.08
2023-04-19T09:32:13.904Z,1.87
2023-04-19T09:33:41.961Z,2.00
2023-04-19T09:34:59.271Z,2.03
2023-04-19T09:36:02.769Z,2.17
2023-04-19T09:37:21.523Z,1.92
2023-04-19T09:38:49.220Z,1.98
2023-04-19T09:39:52.993Z,1.75
2023-04-19T09:41:09.128Z,1.95
2023-04-19T09:42:12.147Z,2.10
2023-04-19T09:43:53.358Z,1.37
2023-04-19T09:46:06.074Z,2.75
2023-04-19T09:47:26.276Z,2.28
2023-04-19T09:48:30.037Z,2.28
2023-04-19T09:49:46.034Z,1.87
2023-04-19T09:50:58.949Z,2.37
2023-04-19T09:52:06.552Z,2.20
2023-04-19T09:53:11.073Z,1.77
2023-04-19T09:54:15.914Z,2.30
2023-04-19T09:56:26.264Z,2.25
2023-04-19T09:57:29.305Z,2.72
2023-04-19T09:59:38.618Z,2.62
2023-04-19T10:00:50.044Z,2.53
2023-04-19T10:01:57.007Z,1.65
2023-04-19T10:03:00.897Z,2.62
2023-04-19T10:04:20.571Z,2.47
2023-04-19T10:05:31.137Z,2.20
2023-04-19T10:06:58.173Z,2.30
2023-04-19T10:08:02.949Z,2.62
2023-04-19T10:09:06.797Z,2.15
2023-04-19T10:10:19.507Z,2.37
2023-04-19T10:11:27.173Z,2.35
2023-04-19T10:13:39.883Z,2.40
2023-04-19T10:14:43.442Z,2.08
2023-04-19T10:15:52.490Z,2.42
2023-04-19T10:16:58.833Z,3.67
2023-04-19T10:18:03.084Z,2.53
2023-04-19T10:19:11.636Z,2.45
2023-04-19T10:20:24.055Z,2.20
2023-04-19T10:21:29.072Z,2.25
2023-04-19T10:22:32.690Z,2.40
2023-04-19T10:23:37.640Z,2.75
2023-04-19T10:24:41.872Z,3.15
2023-04-19T10:25:48.029Z,2.10
2023-04-19T10:27:14.004Z,2.42
2023-04-19T10:28:17.551Z,2.00
2023-04-19T10:29:55.103Z,2.58
2023-04-19T10:31:01.926Z,2.37
2023-04-19T10:32:06.445Z,2.40
2023-04-19T10:33:09.566Z,2.30
2023-04-19T10:34:13.139Z,2.10
2023-04-19T10:35:24.997Z,2.30
2023-04-19T10:36:29.139Z,2.58
2023-04-19T10:37:32.248Z,2.58
2023-04-19T10:38:55.944Z,2.80
2023-04-19T10:39:58.730Z,2.37
2023-04-19T10:41:02.353Z,2.50
2023-04-19T10:42:05.178Z,2.20
2023-04-19T10:43:11.198Z,2.15
2023-04-19T10:44:13.976Z,2.83
2023-04-19T10:45:34.688Z,2.08
2023-04-19T10:46:42.330Z,2.40
2023-04-19T10:47:45.765Z,1.80
2023-04-19T10:48:54.756Z,2.20
2023-04-19T10:49:57.965Z,2.42
2023-04-19T10:51:28.292Z,1.92
2023-04-19T10:52:31.179Z,1.80
2023-04-19T10:53:49.009Z,2.50
2023-04-19T10:54:56.793Z,1.92
2023-04-19T10:55:59.519Z,2.40
2023-04-19T10:57:05.805Z,2.30
2023-04-19T10:58:09.511Z,2.37
2023-04-19T10:59:21.590Z,2.10
2023-04-19T11:00:27.075Z,2.85
2023-04-19T11:01:46.096Z,2.25
2023-04-19T11:02:49.239Z,2.78
2023-04-19T11:03:52.924Z,2.85
2023-04-19T11:04:55.962Z,2.33
2023-04-19T11:06:23.242Z,2.45
2023-04-19T11:07:26.232Z,2.50
2023-04-19T11:08:29.945Z,2.20
2023-04-19T11:09:39.181Z,2.05
2023-04-19T11:10:42.294Z,2.78
2023-04-19T11:11:45.373Z,2.40
2023-04-19T11:12:48.376Z,2.58
2023-04-19T11:13:51.779Z,2.83
2023-04-19T11:15:00.074Z,2.42
2023-04-19T11:16:08.683Z,2.70
2023-04-19T11:17:19.453Z,2.70
2023-04-19T11:18:22.705Z,3.03
2023-04-19T11:19:26.139Z,2.87
2023-04-19T11:20:29.274Z,2.58
2023-04-19T11:21:32.515Z,2.55
2023-04-19T11:22:39.730Z,2.85
2023-04-19T11:23:42.654Z,2.42
2023-04-19T11:24:47.497Z,2.97
2023-04-19T11:25:52.849Z,3.65
2023-04-19T11:26:57.204Z,3.45
2023-04-19T11:28:00.857Z,3.12
2023-04-19T11:29:04.754Z,2.85
2023-04-19T11:30:10.565Z,2.60
2023-04-19T11:31:13.777Z,2.40
2023-04-19T11:32:16.869Z,3.00
2023-04-19T11:33:25.955Z,2.83
2023-04-19T11:34:28.764Z,2.60
2023-04-19T11:35:31.771Z,2.78
2023-04-19T11:36:37.150Z,2.87
2023-04-19T11:37:40.161Z,2.78
2023-04-19T11:38:48.323Z,2.90
2023-04-19T11:39:52.108Z,2.83
2023-04-19T11:41:02.653Z,2.97
2023-04-19T11:43:08.576Z,2.03
2023-04-19T11:44:21.247Z,3.37
2023-04-19T11:45:32.073Z,2.85
2023-04-19T11:46:38.194Z,2.58
2023-04-19T11:47:49.270Z,2.67
2023-04-19T11:48:53.643Z,2.20
2023-04-19T11:49:57.679Z,2.50
2023-04-19T11:51:01.722Z,2.55
2023-04-19T11:52:06.803Z,2.37
2023-04-19T11:53:12.494Z,2.60
2023-04-19T11:54:17.220Z,2.75
2023-04-19T11:55:20.730Z,2.72
2023-04-19T11:56:26.706Z,2.37
2023-04-19T11:57:31.435Z,2.28
2023-04-19T11:58:37.718Z,2.78
2023-04-19T12:00:23.428Z,2.45
2023-04-19T12:01:26.683Z,2.60
2023-04-19T12:02:31.083Z,2.62
2023-04-19T12:03:36.075Z,2.60
2023-04-19T12:04:39.961Z,2.55
2023-04-19T12:06:13.751Z,1.95
2023-04-19T12:07:16.800Z,2.08
2023-04-19T12:08:32.186Z,2.00
2023-04-19T12:09:37.144Z,2.37
2023-04-19T12:10:39.956Z,3.05
2023-04-19T12:11:45.023Z,2.33
2023-04-19T12:12:48.021Z,2.40
2023-04-19T12:14:09.386Z,2.37
2023-04-19T12:15:12.270Z,2.85
2023-04-19T12:16:15.149Z,2.30
2023-04-19T12:17:18.188Z,2.85
2023-04-19T12:18:21.567Z,2.40
2023-04-19T12:19:24.597Z,2.65
2023-04-19T12:20:39.511Z,2.33
2023-04-19T12:21:42.474Z,2.47
2023-04-19T12:22:45.290Z,3.15
2023-04-19T12:23:48.113Z,2.60
2023-04-19T12:24:54.480Z,1.87
2023-04-19T12:25:57.378Z,2.15
2023-04-19T12:27:00.676Z,2.42
2023-04-19T12:28:05.693Z,2.00
2023-04-19T12:29:08.821Z,2.20
2023-04-19T12:30:11.889Z,2.30
2023-04-19T12:31:16.757Z,2.67
2023-04-19T12:32:19.657Z,2.40
2023-04-19T12:33:24.077Z,2.25
2023-04-19T12:34:26.941Z,2.17
2023-04-19T12:35:29.957Z,2.22
2023-04-19T12:36:32.770Z,2.42
2023-04-19T12:37:35.605Z,2.35
2023-04-19T12:38:38.491Z,2.35
2023-04-19T12:39:41.353Z,2.83
2023-04-19T12:40:44.295Z,1.92
2023-04-19T12:41:50.039Z,2.17
2023-04-19T12:42:54.556Z,2.33
2023-04-19T12:43:58.258Z,2.28
2023-04-19T12:45:01.569Z,2.10
2023-04-19T12:46:05.984Z,2.47
2023-04-19T12:47:08.976Z,2.47
2023-04-19T12:48:12.081Z,2.35
2023-04-19T12:49:15.140Z,2.37
2023-04-19T12:50:18.192Z,2.40
2023-04-19T12:51:21.078Z,2.20
2023-04-19T12:52:24.408Z,1.83
2023-04-19T12:53:27.241Z,2.60
2023-04-19T12:54:30.230Z,2.22
2023-04-19T12:55:33.478Z,2.30
2023-04-19T12:56:36.419Z,2.25
2023-04-19T12:57:40.062Z,2.37
2023-04-19T12:58:43.268Z,2.15
2023-04-19T12:59:46.287Z,2.05
2023-04-19T13:00:49.785Z,2.45
2023-04-19T13:01:52.777Z,2.90
2023-04-19T13:02:55.982Z,2.30
2023-04-19T13:03:59.784Z,2.20
2023-04-19T13:05:05.412Z,2.72
2023-04-19T13:06:09.686Z,2.60
2023-04-19T13:07:12.423Z,1.60
2023-04-19T13:08:15.511Z,2.00
2023-04-19T13:09:18.400Z,2.25
2023-04-19T13:10:21.376Z,2.30
2023-04-19T13:11:24.548Z,2.55
2023-04-19T13:12:28.526Z,2.42
2023-04-19T13:13:31.454Z,3.12
2023-04-19T13:14:34.572Z,2.12
2023-04-19T13:15:37.437Z,2.97
2023-04-19T13:16:41.236Z,2.75
2023-04-19T13:17:44.755Z,2.70
2023-04-19T13:18:47.928Z,3.12
2023-04-19T13:19:51.363Z,2.58
2023-04-19T13:20:54.276Z,2.87
2023-04-19T13:21:57.382Z,2.72
2023-04-19T13:23:00.180Z,3.00
2023-04-19T13:24:03.081Z,2.78
2023-04-19T13:25:06.486Z,3.40
2023-04-19T13:26:09.569Z,2.72
2023-04-19T13:27:12.811Z,3.35
2023-04-19T13:28:15.871Z,3.12
2023-04-19T13:29:19.070Z,3.12
2023-04-19T13:30:22.243Z,3.33
2023-04-19T13:31:25.662Z,2.78
2023-04-19T13:32:29.553Z,3.30
2023-04-19T13:33:32.421Z,3.22
2023-04-19T13:34:35.554Z,3.55
2023-04-19T13:35:38.406Z,2.90
2023-04-19T13:36:41.480Z,3.55
2023-04-19T13:37:44.716Z,3.50
2023-04-19T13:38:48.557Z,3.22
2023-04-19T13:39:51.729Z,3.42
2023-04-19T13:40:54.720Z,3.08
2023-04-19T13:41:57.839Z,3.35
2023-04-19T13:43:00.931Z,3.60
2023-04-19T13:44:03.902Z,3.17
2023-04-19T13:45:07.222Z,3.37
2023-04-19T13:46:10.140Z,3.80
2023-04-19T13:47:13.118Z,3.65
2023-04-19T13:48:16.228Z,2.95
2023-04-19T13:49:19.404Z,3.12
2023-04-19T13:50:22.228Z,3.30
2023-04-19T13:51:25.054Z,3.17
2023-04-19T13:52:28.081Z,2.90
2023-04-19T13:53:31.194Z,3.33
2023-04-19T13:54:34.250Z,2.60
2023-04-19T13:55:37.310Z,2.83
2023-04-19T13:56:40.117Z,2.60
2023-04-19T13:57:43.151Z,2.95
2023-04-19T13:58:46.583Z,2.85
2023-04-19T13:59:49.536Z,3.12
2023-04-19T14:00:54.096Z,2.92
2023-04-19T14:01:57.252Z,3.05
2023-04-19T14:03:00.703Z,2.70
2023-04-19T14:04:03.984Z,2.78
2023-04-19T14:05:07.474Z,2.50
2023-04-19T14:06:10.634Z,2.55
2023-04-19T14:07:13.540Z,2.90
2023-04-19T14:08:16.661Z,3.40
2023-04-19T14:09:19.623Z,2.95
2023-04-19T14:10:22.692Z,3.05
2023-04-19T14:11:26.106Z,2.50
2023-04-19T14:12:28.949Z,2.67
2023-04-19T14:13:31.887Z,2.37
2023-04-19T14:14:34.974Z,3.00
2023-04-19T14:15:37.938Z,2.47
2023-04-19T14:16:40.828Z,2.12
2023-04-19T14:17:44.137Z,2.45
2023-04-19T14:18:47.012Z,2.50
2023-04-19T14:19:50.003Z,2.45
2023-04-19T14:20:53.295Z,3.28
2023-04-19T14:21:56.194Z,2.55
2023-04-19T14:23:00.825Z,2.55
2023-04-19T14:24:03.958Z,2.35
2023-04-19T14:25:07.331Z,2.87
2023-04-19T14:26:10.571Z,2.55
2023-04-19T14:27:13.672Z,3.05
2023-04-19T14:28:16.840Z,2.83
2023-04-19T14:29:19.747Z,3.30
2023-04-19T14:30:22.662Z,2.42